Lemon Grove, CA

6:04 PM PDT on October 22, 2014 (GMT -0700)
San Diego International-Lindbergh | Change Station
CLOSE
Current Station
Airport
Location: San Diego,
Elevation: 30 ft
Nearby Weather Stations

Elev 30 ft 32.73 °N, 117.18 °W | Updated 13 minutes ago

Clear
Clear
72 °F
Feels Like 72 °F
N
7
Wind Variable Wind from WNW

Today
High -- | Low -- °F
--% Chance of Precip.
Yesterday
High -- | Low -- °F
Precip. -- in
6:57 AM 6:07 PM
Waning Crescent, 1% visible
Pressure 29.91 in
Visibility 8.0 miles
Clouds Few 2000 ft
Mostly Cloudy 20000 ft
Dew Point 63 °F
Humidity 73%
Rainfall 0.00 in
Snow Depth Not available.
UV 0 out of 12
Pollen 3.90 out of 12
Ozone Good
PM2.5 Moderate
Flu Activity Sporadic
METAR KSAN 230051Z 30006KT 8SM FEW020 BKN200 22/17 A2991 RMK AO2 SLP127 T02220172

More Conditions Fewer Conditions

Pressure 29.91 in
Visibility 8.0 miles
Clouds Few 2000 ft
Mostly Cloudy 20000 ft
Dew Point 63 °F
Humidity 73%
Rainfall 0.00 in
Snow Depth Not available.
UV 0 out of 12
Pollen 3.90 out of 12
Ozone Good
PM2.5 Moderate
Flu Activity Sporadic
METAR KSAN 230051Z 30006KT 8SM FEW020 BKN200 22/17 A2991 RMK AO2 SLP127 T02220172

More Conditions Fewer Conditions

10-Day Weather Forecast

Almanac

Astronomy

Oct. 22, 2014 Rise Set
Actual Time 6:57 AM PDT 6:07 PM PDT
Civil Twilight 6:32 AM PDT 6:32 PM PDT
Nautical Twilight 6:03 AM PDT 7:00 PM PDT
Astronomical Twilight 5:35 AM PDT 7:29 PM PDT
Moon 5:47 AM PDT (10/22) 5:33 PM PDT (10/22)
Length of Visible Light 11h 59m
Length of Day
11h 09m
Tomorrow will be 1m 52s shorter.
Waning Crescent, 1% of the Moon is Illuminated
Today
Waning Crescent
Oct 23
New
Oct 30
First Quarter
Nov 6
Full
Nov 14
Last Quarter

Today's Extremes

State Highs State Lows

Community

WunderPhotos

Upload Photos

1,764,100 photos uploaded!

WunderBlogs® & News

Nearby

Air Quality

  Air Quality AQ Index Pollutant
Yesterday Moderate
PM2.5
Yesterday Good
OZONE
Current Moderate
PM2.5
Current Good
OZONE
Wednesday Good
OZONE
Thursday Moderate
PM2.5
Thursday Good
OZONE

Snow Depth

Station Depth Elevation
Summit Meadow 0 in 9122 ft
Rubicon #2 0 in 7500 ft
Ward Creek #3 0 in 6750 ft
Tahoe City Cross 0 in 6750 ft
Adin Mountain 0 in 6200 ft

Earthquake Activity

City Distance Mag. Time & Date
Alberto Oviedo Mota, Mexico 115 miles 3.5 9:05 PM PDT
2014-10-21
Delta, Mexico 106 miles 2.5 8:53 PM PDT
2014-10-21
Alberto Oviedo Mota, Mexico 115 miles 2.7 4:13 PM PDT
2014-10-21
Alberto Oviedo Mota, Mexico 113 miles 3.3 3:57 PM PDT
2014-10-21
Minimum magnitude displayed is 2.5.

Coastal Water Temperatures

Place Temperature
La Jolla, CA 71.1 °F
San Diego, CA 75.0 °F

Nearby Weather Stations